sensor_id;sensor_type;location;lat;lon;timestamp;P1;durP1;ratioP1;P2;durP2;ratioP2
70970;SDS011;58632;51.718;19.446;2023-04-12T00:02:24;16.80;;;13.90;;
70970;SDS011;58632;51.718;19.446;2023-04-12T00:04:51;14.80;;;12.00;;
70970;SDS011;58632;51.718;19.446;2023-04-12T00:07:22;16.80;;;12.90;;
70970;SDS011;58632;51.718;19.446;2023-04-12T00:09:49;16.80;;;12.50;;
70970;SDS011;58632;51.718;19.446;2023-04-12T00:12:16;15.50;;;12.10;;
70970;SDS011;58632;51.718;19.446;2023-04-12T00:14:44;16.80;;;12.70;;
70970;SDS011;58632;51.718;19.446;2023-04-12T00:17:09;15.40;;;11.90;;
70970;SDS011;58632;51.718;19.446;2023-04-12T00:19:36;19.10;;;12.70;;
70970;SDS011;58632;51.718;19.446;2023-04-12T00:22:06;17.00;;;15.20;;
70970;SDS011;58632;51.718;19.446;2023-04-12T00:24:37;17.60;;;13.40;;
70970;SDS011;58632;51.718;19.446;2023-04-12T00:27:04;16.20;;;13.20;;
70970;SDS011;58632;51.718;19.446;2023-04-12T00:29:30;19.40;;;15.20;;
70970;SDS011;58632;51.718;19.446;2023-04-12T00:31:59;17.40;;;12.70;;
70970;SDS011;58632;51.718;19.446;2023-04-12T00:34:27;16.90;;;14.50;;
70970;SDS011;58632;51.718;19.446;2023-04-12T00:36:53;18.30;;;13.40;;
70970;SDS011;58632;51.718;19.446;2023-04-12T00:39:19;15.90;;;12.00;;
70970;SDS011;58632;51.718;19.446;2023-04-12T00:41:45;17.60;;;12.60;;
70970;SDS011;58632;51.718;19.446;2023-04-12T00:44:11;17.60;;;13.00;;
70970;SDS011;58632;51.718;19.446;2023-04-12T00:46:36;18.50;;;13.50;;
70970;SDS011;58632;51.718;19.446;2023-04-12T00:49:03;20.70;;;14.00;;
70970;SDS011;58632;51.718;19.446;2023-04-12T00:51:30;16.80;;;13.80;;
70970;SDS011;58632;51.718;19.446;2023-04-12T00:53:58;19.30;;;15.00;;
70970;SDS011;58632;51.718;19.446;2023-04-12T00:56:25;21.20;;;15.30;;
70970;SDS011;58632;51.718;19.446;2023-04-12T00:58:55;19.90;;;14.60;;
70970;SDS011;58632;51.718;19.446;2023-04-12T01:01:22;15.10;;;11.40;;
70970;SDS011;58632;51.718;19.446;2023-04-12T01:03:51;16.60;;;13.20;;
70970;SDS011;58632;51.718;19.446;2023-04-12T01:09:18;13.90;;;10.40;;
70970;SDS011;58632;51.718;19.446;2023-04-12T01:17:48;14.00;;;11.40;;
70970;SDS011;58632;51.718;19.446;2023-04-12T01:20:26;15.10;;;11.80;;
70970;SDS011;58632;51.718;19.446;2023-04-12T01:28:13;12.90;;;11.20;;
70970;SDS011;58632;51.718;19.446;2023-04-12T01:30:43;13.30;;;11.40;;
70970;SDS011;58632;51.718;19.446;2023-04-12T01:33:12;15.60;;;11.40;;
70970;SDS011;58632;51.718;19.446;2023-04-12T01:35:40;11.00;;;9.50;;
70970;SDS011;58632;51.718;19.446;2023-04-12T01:38:07;11.80;;;9.70;;
70970;SDS011;58632;51.718;19.446;2023-04-12T01:43:06;10.40;;;8.00;;
70970;SDS011;58632;51.718;19.446;2023-04-12T01:45:36;10.70;;;9.40;;
70970;SDS011;58632;51.718;19.446;2023-04-12T01:53:32;16.50;;;12.00;;
70970;SDS011;58632;51.718;19.446;2023-04-12T01:56:08;11.30;;;9.50;;
70970;SDS011;58632;51.718;19.446;2023-04-12T01:58:35;13.40;;;10.30;;
70970;SDS011;58632;51.718;19.446;2023-04-12T02:01:02;12.40;;;9.20;;
70970;SDS011;58632;51.718;19.446;2023-04-12T02:03:29;13.90;;;11.00;;
70970;SDS011;58632;51.718;19.446;2023-04-12T02:05:56;13.60;;;10.00;;
70970;SDS011;58632;51.718;19.446;2023-04-12T02:08:24;11.80;;;9.90;;
70970;SDS011;58632;51.718;19.446;2023-04-12T02:10:50;15.90;;;11.40;;
70970;SDS011;58632;51.718;19.446;2023-04-12T02:13:16;16.00;;;13.50;;
70970;SDS011;58632;51.718;19.446;2023-04-12T02:15:42;14.40;;;10.20;;
70970;SDS011;58632;51.718;19.446;2023-04-12T02:18:08;16.20;;;13.00;;
70970;SDS011;58632;51.718;19.446;2023-04-12T02:20:35;14.50;;;10.60;;
70970;SDS011;58632;51.718;19.446;2023-04-12T02:23:01;16.40;;;10.90;;
70970;SDS011;58632;51.718;19.446;2023-04-12T02:25:27;17.10;;;11.80;;
70970;SDS011;58632;51.718;19.446;2023-04-12T02:27:53;15.10;;;12.00;;
70970;SDS011;58632;51.718;19.446;2023-04-12T02:30:19;15.10;;;11.40;;
70970;SDS011;58632;51.718;19.446;2023-04-12T02:32:46;16.10;;;11.20;;
70970;SDS011;58632;51.718;19.446;2023-04-12T02:35:12;14.50;;;10.10;;
70970;SDS011;58632;51.718;19.446;2023-04-12T02:37:42;14.90;;;10.40;;
70970;SDS011;58632;51.718;19.446;2023-04-12T02:40:09;13.60;;;10.90;;
70970;SDS011;58632;51.718;19.446;2023-04-12T02:42:35;13.70;;;11.10;;
70970;SDS011;58632;51.718;19.446;2023-04-12T02:45:02;14.20;;;11.20;;
70970;SDS011;58632;51.718;19.446;2023-04-12T02:47:28;14.80;;;13.20;;
70970;SDS011;58632;51.718;19.446;2023-04-12T02:49:54;13.90;;;10.70;;
70970;SDS011;58632;51.718;19.446;2023-04-12T02:52:20;14.50;;;11.50;;
70970;SDS011;58632;51.718;19.446;2023-04-12T02:54:50;14.10;;;10.10;;
70970;SDS011;58632;51.718;19.446;2023-04-12T02:57:16;14.30;;;11.20;;
70970;SDS011;58632;51.718;19.446;2023-04-12T02:59:42;14.50;;;11.90;;
70970;SDS011;58632;51.718;19.446;2023-04-12T03:02:08;13.80;;;11.10;;
70970;SDS011;58632;51.718;19.446;2023-04-12T03:04:34;11.80;;;10.00;;
70970;SDS011;58632;51.718;19.446;2023-04-12T03:07:04;12.40;;;9.20;;
70970;SDS011;58632;51.718;19.446;2023-04-12T03:09:31;13.10;;;10.70;;
70970;SDS011;58632;51.718;19.446;2023-04-12T03:11:57;16.40;;;10.90;;
70970;SDS011;58632;51.718;19.446;2023-04-12T03:14:22;13.50;;;11.10;;
70970;SDS011;58632;51.718;19.446;2023-04-12T03:16:48;15.60;;;12.20;;
70970;SDS011;58632;51.718;19.446;2023-04-12T03:21:41;19.80;;;10.20;;
70970;SDS011;58632;51.718;19.446;2023-04-12T03:24:07;19.00;;;12.40;;
70970;SDS011;58632;51.718;19.446;2023-04-12T03:26:33;17.90;;;11.70;;
70970;SDS011;58632;51.718;19.446;2023-04-12T03:29:00;18.50;;;12.40;;
70970;SDS011;58632;51.718;19.446;2023-04-12T03:31:29;16.80;;;11.90;;
70970;SDS011;58632;51.718;19.446;2023-04-12T03:33:55;14.90;;;11.80;;
70970;SDS011;58632;51.718;19.446;2023-04-12T03:36:21;20.50;;;15.30;;
70970;SDS011;58632;51.718;19.446;2023-04-12T03:38:47;14.70;;;11.50;;
70970;SDS011;58632;51.718;19.446;2023-04-12T03:41:14;14.50;;;11.50;;
70970;SDS011;58632;51.718;19.446;2023-04-12T03:43:40;14.70;;;10.60;;
70970;SDS011;58632;51.718;19.446;2023-04-12T03:46:06;12.80;;;10.00;;
70970;SDS011;58632;51.718;19.446;2023-04-12T03:48:32;13.90;;;11.30;;
70970;SDS011;58632;51.718;19.446;2023-04-12T03:50:58;16.90;;;12.10;;
70970;SDS011;58632;51.718;19.446;2023-04-12T03:53:27;15.80;;;12.20;;
70970;SDS011;58632;51.718;19.446;2023-04-12T03:55:55;14.30;;;11.30;;
70970;SDS011;58632;51.718;19.446;2023-04-12T03:58:21;13.50;;;10.20;;
70970;SDS011;58632;51.718;19.446;2023-04-12T04:00:47;15.90;;;10.60;;
70970;SDS011;58632;51.718;19.446;2023-04-12T04:03:13;17.90;;;12.30;;
70970;SDS011;58632;51.718;19.446;2023-04-12T04:05:40;17.30;;;12.80;;
70970;SDS011;58632;51.718;19.446;2023-04-12T04:08:06;16.90;;;12.60;;
70970;SDS011;58632;51.718;19.446;2023-04-12T04:10:32;17.40;;;11.70;;
70970;SDS011;58632;51.718;19.446;2023-04-12T04:12:58;15.90;;;12.80;;
70970;SDS011;58632;51.718;19.446;2023-04-12T04:15:24;15.40;;;13.10;;
70970;SDS011;58632;51.718;19.446;2023-04-12T04:17:50;17.80;;;13.90;;
70970;SDS011;58632;51.718;19.446;2023-04-12T04:20:17;17.60;;;12.40;;
70970;SDS011;58632;51.718;19.446;2023-04-12T04:22:44;16.90;;;11.70;;
70970;SDS011;58632;51.718;19.446;2023-04-12T04:25:12;17.60;;;12.40;;
70970;SDS011;58632;51.718;19.446;2023-04-12T04:27:42;15.90;;;12.40;;
70970;SDS011;58632;51.718;19.446;2023-04-12T04:30:11;17.00;;;12.40;;
70970;SDS011;58632;51.718;19.446;2023-04-12T04:32:39;14.30;;;11.10;;
70970;SDS011;58632;51.718;19.446;2023-04-12T04:35:06;16.50;;;12.40;;
70970;SDS011;58632;51.718;19.446;2023-04-12T04:37:32;16.70;;;13.20;;
70970;SDS011;58632;51.718;19.446;2023-04-12T04:39:59;15.00;;;12.40;;
70970;SDS011;58632;51.718;19.446;2023-04-12T04:42:46;14.80;;;12.00;;
70970;SDS011;58632;51.718;19.446;2023-04-12T04:45:18;18.40;;;13.10;;
70970;SDS011;58632;51.718;19.446;2023-04-12T04:47:53;15.20;;;12.70;;
70970;SDS011;58632;51.718;19.446;2023-04-12T04:50:20;16.90;;;12.80;;
70970;SDS011;58632;51.718;19.446;2023-04-12T04:52:47;15.20;;;13.10;;
70970;SDS011;58632;51.718;19.446;2023-04-12T04:55:13;17.80;;;13.00;;
70970;SDS011;58632;51.718;19.446;2023-04-12T04:57:41;17.60;;;14.70;;
70970;SDS011;58632;51.718;19.446;2023-04-12T05:00:08;18.80;;;14.80;;
70970;SDS011;58632;51.718;19.446;2023-04-12T05:02:41;19.10;;;14.20;;
70970;SDS011;58632;51.718;19.446;2023-04-12T05:05:08;19.00;;;14.40;;
70970;SDS011;58632;51.718;19.446;2023-04-12T05:07:34;20.50;;;14.70;;
70970;SDS011;58632;51.718;19.446;2023-04-12T05:10:02;22.10;;;15.40;;
70970;SDS011;58632;51.718;19.446;2023-04-12T05:12:28;17.30;;;12.20;;
70970;SDS011;58632;51.718;19.446;2023-04-12T05:14:54;17.80;;;14.10;;
70970;SDS011;58632;51.718;19.446;2023-04-12T05:19:46;19.70;;;13.30;;
70970;SDS011;58632;51.718;19.446;2023-04-12T05:22:12;19.80;;;13.80;;
70970;SDS011;58632;51.718;19.446;2023-04-12T05:24:38;17.50;;;12.50;;
70970;SDS011;58632;51.718;19.446;2023-04-12T05:27:05;21.20;;;14.50;;
70970;SDS011;58632;51.718;19.446;2023-04-12T05:29:31;25.60;;;15.10;;
70970;SDS011;58632;51.718;19.446;2023-04-12T05:31:57;18.80;;;14.20;;
70970;SDS011;58632;51.718;19.446;2023-04-12T05:34:23;18.70;;;13.60;;
70970;SDS011;58632;51.718;19.446;2023-04-12T05:36:49;16.80;;;13.40;;
70970;SDS011;58632;51.718;19.446;2023-04-12T05:39:15;19.10;;;12.60;;
70970;SDS011;58632;51.718;19.446;2023-04-12T05:41:40;18.30;;;13.30;;
70970;SDS011;58632;51.718;19.446;2023-04-12T05:44:06;22.60;;;16.10;;
70970;SDS011;58632;51.718;19.446;2023-04-12T05:46:32;23.30;;;15.90;;
70970;SDS011;58632;51.718;19.446;2023-04-12T05:48:58;17.00;;;13.00;;
70970;SDS011;58632;51.718;19.446;2023-04-12T05:51:23;20.10;;;13.20;;
70970;SDS011;58632;51.718;19.446;2023-04-12T05:53:50;21.60;;;12.40;;
70970;SDS011;58632;51.718;19.446;2023-04-12T05:56:16;18.10;;;13.70;;
70970;SDS011;58632;51.718;19.446;2023-04-12T05:58:41;14.90;;;12.50;;
70970;SDS011;58632;51.718;19.446;2023-04-12T06:01:07;31.30;;;15.70;;
70970;SDS011;58632;51.718;19.446;2023-04-12T06:03:33;19.40;;;15.20;;
70970;SDS011;58632;51.718;19.446;2023-04-12T06:05:59;22.00;;;16.30;;
70970;SDS011;58632;51.718;19.446;2023-04-12T06:08:26;23.50;;;15.90;;
70970;SDS011;58632;51.718;19.446;2023-04-12T06:10:53;20.00;;;14.40;;
70970;SDS011;58632;51.718;19.446;2023-04-12T06:13:19;19.20;;;15.50;;
70970;SDS011;58632;51.718;19.446;2023-04-12T06:15:45;20.50;;;16.10;;
70970;SDS011;58632;51.718;19.446;2023-04-12T06:18:11;22.50;;;17.10;;
70970;SDS011;58632;51.718;19.446;2023-04-12T06:20:40;23.90;;;17.10;;
70970;SDS011;58632;51.718;19.446;2023-04-12T06:23:06;22.00;;;17.40;;
70970;SDS011;58632;51.718;19.446;2023-04-12T06:25:32;20.30;;;16.10;;
70970;SDS011;58632;51.718;19.446;2023-04-12T06:27:58;18.90;;;14.20;;
70970;SDS011;58632;51.718;19.446;2023-04-12T06:30:24;20.10;;;15.80;;
70970;SDS011;58632;51.718;19.446;2023-04-12T06:32:50;18.40;;;12.90;;
70970;SDS011;58632;51.718;19.446;2023-04-12T06:35:16;23.20;;;16.10;;
70970;SDS011;58632;51.718;19.446;2023-04-12T06:37:42;21.40;;;15.60;;
70970;SDS011;58632;51.718;19.446;2023-04-12T06:40:07;22.00;;;16.60;;
70970;SDS011;58632;51.718;19.446;2023-04-12T06:42:33;22.00;;;16.20;;
70970;SDS011;58632;51.718;19.446;2023-04-12T06:45:00;20.60;;;15.70;;
70970;SDS011;58632;51.718;19.446;2023-04-12T06:47:26;18.40;;;15.10;;
70970;SDS011;58632;51.718;19.446;2023-04-12T06:49:52;18.80;;;15.40;;
70970;SDS011;58632;51.718;19.446;2023-04-12T06:52:22;21.40;;;15.50;;
70970;SDS011;58632;51.718;19.446;2023-04-12T06:54:49;19.20;;;12.80;;
70970;SDS011;58632;51.718;19.446;2023-04-12T06:57:15;20.20;;;14.50;;
70970;SDS011;58632;51.718;19.446;2023-04-12T06:59:41;17.30;;;14.40;;
70970;SDS011;58632;51.718;19.446;2023-04-12T07:02:07;20.90;;;14.90;;
70970;SDS011;58632;51.718;19.446;2023-04-12T07:04:32;20.80;;;15.10;;
70970;SDS011;58632;51.718;19.446;2023-04-12T07:06:58;21.70;;;15.20;;
70970;SDS011;58632;51.718;19.446;2023-04-12T07:09:24;19.90;;;15.50;;
70970;SDS011;58632;51.718;19.446;2023-04-12T07:11:50;18.70;;;13.90;;
70970;SDS011;58632;51.718;19.446;2023-04-12T07:14:17;16.70;;;13.30;;
70970;SDS011;58632;51.718;19.446;2023-04-12T07:16:42;17.50;;;13.50;;
70970;SDS011;58632;51.718;19.446;2023-04-12T07:19:08;18.10;;;13.20;;
70970;SDS011;58632;51.718;19.446;2023-04-12T07:21:34;16.30;;;13.00;;
70970;SDS011;58632;51.718;19.446;2023-04-12T07:24:00;17.30;;;12.70;;
70970;SDS011;58632;51.718;19.446;2023-04-12T07:26:26;18.90;;;13.80;;
70970;SDS011;58632;51.718;19.446;2023-04-12T07:28:52;21.00;;;16.20;;
70970;SDS011;58632;51.718;19.446;2023-04-12T07:31:18;22.90;;;15.80;;
70970;SDS011;58632;51.718;19.446;2023-04-12T07:33:44;21.40;;;16.20;;
70970;SDS011;58632;51.718;19.446;2023-04-12T07:36:10;22.10;;;15.40;;
70970;SDS011;58632;51.718;19.446;2023-04-12T07:38:36;19.50;;;14.60;;
70970;SDS011;58632;51.718;19.446;2023-04-12T07:41:02;21.50;;;15.10;;
70970;SDS011;58632;51.718;19.446;2023-04-12T07:43:28;20.10;;;14.20;;
70970;SDS011;58632;51.718;19.446;2023-04-12T07:45:54;19.40;;;14.10;;
70970;SDS011;58632;51.718;19.446;2023-04-12T07:48:20;21.40;;;15.10;;
70970;SDS011;58632;51.718;19.446;2023-04-12T07:50:45;19.60;;;13.30;;
70970;SDS011;58632;51.718;19.446;2023-04-12T07:53:22;17.00;;;13.30;;
70970;SDS011;58632;51.718;19.446;2023-04-12T07:55:49;19.90;;;14.90;;
70970;SDS011;58632;51.718;19.446;2023-04-12T07:58:16;17.80;;;14.20;;
70970;SDS011;58632;51.718;19.446;2023-04-12T08:00:43;19.20;;;14.10;;
70970;SDS011;58632;51.718;19.446;2023-04-12T08:03:12;18.50;;;14.90;;
70970;SDS011;58632;51.718;19.446;2023-04-12T08:05:39;15.80;;;12.80;;
70970;SDS011;58632;51.718;19.446;2023-04-12T08:08:06;17.40;;;12.20;;
70970;SDS011;58632;51.718;19.446;2023-04-12T08:10:34;17.10;;;11.00;;
70970;SDS011;58632;51.718;19.446;2023-04-12T08:13:01;14.90;;;12.20;;
70970;SDS011;58632;51.718;19.446;2023-04-12T08:15:27;16.00;;;12.00;;
70970;SDS011;58632;51.718;19.446;2023-04-12T08:17:53;16.10;;;13.00;;
70970;SDS011;58632;51.718;19.446;2023-04-12T08:20:19;16.50;;;13.10;;
70970;SDS011;58632;51.718;19.446;2023-04-12T08:22:45;17.90;;;12.40;;
70970;SDS011;58632;51.718;19.446;2023-04-12T08:25:11;14.70;;;11.40;;
70970;SDS011;58632;51.718;19.446;2023-04-12T08:27:40;15.60;;;12.90;;
70970;SDS011;58632;51.718;19.446;2023-04-12T08:30:07;15.10;;;12.10;;
70970;SDS011;58632;51.718;19.446;2023-04-12T08:32:35;14.70;;;12.20;;
70970;SDS011;58632;51.718;19.446;2023-04-12T08:35:02;14.10;;;10.90;;
70970;SDS011;58632;51.718;19.446;2023-04-12T08:39:54;12.50;;;10.90;;
70970;SDS011;58632;51.718;19.446;2023-04-12T08:42:20;15.00;;;11.20;;
70970;SDS011;58632;51.718;19.446;2023-04-12T08:44:46;12.00;;;10.60;;
70970;SDS011;58632;51.718;19.446;2023-04-12T08:47:15;15.10;;;10.20;;
70970;SDS011;58632;51.718;19.446;2023-04-12T08:49:41;16.00;;;12.20;;
70970;SDS011;58632;51.718;19.446;2023-04-12T08:52:08;11.40;;;9.10;;
70970;SDS011;58632;51.718;19.446;2023-04-12T08:54:35;10.40;;;9.10;;
70970;SDS011;58632;51.718;19.446;2023-04-12T08:57:02;10.20;;;8.50;;
70970;SDS011;58632;51.718;19.446;2023-04-12T08:59:30;12.20;;;8.80;;
70970;SDS011;58632;51.718;19.446;2023-04-12T09:01:57;10.60;;;8.30;;
70970;SDS011;58632;51.718;19.446;2023-04-12T09:04:24;12.40;;;9.70;;
70970;SDS011;58632;51.718;19.446;2023-04-12T09:06:54;12.60;;;9.20;;
70970;SDS011;58632;51.718;19.446;2023-04-12T09:12:18;10.00;;;7.50;;
70970;SDS011;58632;51.718;19.446;2023-04-12T09:14:54;9.20;;;7.40;;
70970;SDS011;58632;51.718;19.446;2023-04-12T09:17:39;10.50;;;8.00;;
70970;SDS011;58632;51.718;19.446;2023-04-12T09:22:41;8.50;;;6.90;;
70970;SDS011;58632;51.718;19.446;2023-04-12T09:25:09;10.30;;;8.40;;
70970;SDS011;58632;51.718;19.446;2023-04-12T09:27:46;9.80;;;7.30;;
70970;SDS011;58632;51.718;19.446;2023-04-12T09:30:15;11.30;;;7.80;;
70970;SDS011;58632;51.718;19.446;2023-04-12T09:32:42;11.70;;;7.90;;
70970;SDS011;58632;51.718;19.446;2023-04-12T09:35:08;10.40;;;6.50;;
70970;SDS011;58632;51.718;19.446;2023-04-12T09:37:34;9.70;;;7.30;;
70970;SDS011;58632;51.718;19.446;2023-04-12T09:40:01;9.20;;;7.20;;
70970;SDS011;58632;51.718;19.446;2023-04-12T09:42:34;9.10;;;8.00;;
70970;SDS011;58632;51.718;19.446;2023-04-12T09:45:17;9.30;;;7.30;;
70970;SDS011;58632;51.718;19.446;2023-04-12T09:47:45;10.00;;;7.20;;
70970;SDS011;58632;51.718;19.446;2023-04-12T09:50:18;9.30;;;6.50;;
70970;SDS011;58632;51.718;19.446;2023-04-12T09:52:45;8.00;;;6.10;;
70970;SDS011;58632;51.718;19.446;2023-04-12T09:55:11;9.20;;;6.90;;
70970;SDS011;58632;51.718;19.446;2023-04-12T09:57:41;8.00;;;6.10;;
70970;SDS011;58632;51.718;19.446;2023-04-12T10:00:08;7.10;;;5.70;;
70970;SDS011;58632;51.718;19.446;2023-04-12T10:02:37;10.40;;;8.00;;
70970;SDS011;58632;51.718;19.446;2023-04-12T10:05:04;11.10;;;7.20;;
70970;SDS011;58632;51.718;19.446;2023-04-12T10:07:30;11.30;;;7.50;;
70970;SDS011;58632;51.718;19.446;2023-04-12T10:09:57;11.20;;;7.10;;
70970;SDS011;58632;51.718;19.446;2023-04-12T10:12:24;9.20;;;7.20;;
70970;SDS011;58632;51.718;19.446;2023-04-12T10:14:51;13.70;;;9.20;;
70970;SDS011;58632;51.718;19.446;2023-04-12T10:17:18;9.00;;;7.70;;
70970;SDS011;58632;51.718;19.446;2023-04-12T10:19:46;10.20;;;7.40;;
70970;SDS011;58632;51.718;19.446;2023-04-12T10:22:13;9.50;;;7.20;;
70970;SDS011;58632;51.718;19.446;2023-04-12T10:24:41;9.20;;;6.60;;
70970;SDS011;58632;51.718;19.446;2023-04-12T10:27:07;9.20;;;7.10;;
70970;SDS011;58632;51.718;19.446;2023-04-12T10:29:34;9.60;;;6.50;;
70970;SDS011;58632;51.718;19.446;2023-04-12T10:32:21;11.40;;;7.60;;
70970;SDS011;58632;51.718;19.446;2023-04-12T10:34:51;10.10;;;7.50;;
70970;SDS011;58632;51.718;19.446;2023-04-12T10:37:18;9.70;;;6.30;;
70970;SDS011;58632;51.718;19.446;2023-04-12T10:39:50;6.30;;;5.70;;
70970;SDS011;58632;51.718;19.446;2023-04-12T10:42:18;8.00;;;5.80;;
70970;SDS011;58632;51.718;19.446;2023-04-12T10:44:44;8.80;;;6.30;;
70970;SDS011;58632;51.718;19.446;2023-04-12T10:47:10;10.50;;;6.80;;
70970;SDS011;58632;51.718;19.446;2023-04-12T10:49:36;8.80;;;6.20;;
70970;SDS011;58632;51.718;19.446;2023-04-12T10:54:29;8.20;;;6.30;;
70970;SDS011;58632;51.718;19.446;2023-04-12T10:56:56;8.50;;;6.80;;
70970;SDS011;58632;51.718;19.446;2023-04-12T10:59:22;11.60;;;8.80;;
70970;SDS011;58632;51.718;19.446;2023-04-12T11:04:33;13.20;;;9.90;;
70970;SDS011;58632;51.718;19.446;2023-04-12T11:07:00;17.70;;;11.90;;
70970;SDS011;58632;51.718;19.446;2023-04-12T11:14:35;14.90;;;10.90;;
70970;SDS011;58632;51.718;19.446;2023-04-12T11:19:38;15.70;;;12.00;;
70970;SDS011;58632;51.718;19.446;2023-04-12T11:22:06;19.60;;;12.50;;
70970;SDS011;58632;51.718;19.446;2023-04-12T11:24:37;14.80;;;10.60;;
70970;SDS011;58632;51.718;19.446;2023-04-12T11:27:13;12.30;;;10.60;;
70970;SDS011;58632;51.718;19.446;2023-04-12T11:29:43;14.60;;;11.10;;
70970;SDS011;58632;51.718;19.446;2023-04-12T11:32:11;15.20;;;12.00;;
70970;SDS011;58632;51.718;19.446;2023-04-12T11:34:41;14.00;;;11.40;;
70970;SDS011;58632;51.718;19.446;2023-04-12T11:37:09;16.40;;;12.80;;
70970;SDS011;58632;51.718;19.446;2023-04-12T11:39:36;18.50;;;13.50;;
70970;SDS011;58632;51.718;19.446;2023-04-12T11:42:04;18.90;;;13.50;;
70970;SDS011;58632;51.718;19.446;2023-04-12T11:44:33;13.80;;;11.90;;
70970;SDS011;58632;51.718;19.446;2023-04-12T11:49:27;17.40;;;12.20;;
70970;SDS011;58632;51.718;19.446;2023-04-12T11:52:00;31.60;;;18.10;;
70970;SDS011;58632;51.718;19.446;2023-04-12T11:54:31;33.50;;;18.10;;
70970;SDS011;58632;51.718;19.446;2023-04-12T11:56:58;19.60;;;13.30;;
70970;SDS011;58632;51.718;19.446;2023-04-12T11:59:31;18.20;;;12.50;;
70970;SDS011;58632;51.718;19.446;2023-04-12T12:02:00;18.60;;;12.80;;
70970;SDS011;58632;51.718;19.446;2023-04-12T12:04:27;17.50;;;12.70;;
70970;SDS011;58632;51.718;19.446;2023-04-12T12:06:55;25.80;;;17.70;;
70970;SDS011;58632;51.718;19.446;2023-04-12T12:09:21;17.40;;;13.20;;
70970;SDS011;58632;51.718;19.446;2023-04-12T12:11:48;14.50;;;11.90;;
70970;SDS011;58632;51.718;19.446;2023-04-12T12:14:17;13.80;;;10.50;;
70970;SDS011;58632;51.718;19.446;2023-04-12T12:16:50;15.00;;;10.50;;
70970;SDS011;58632;51.718;19.446;2023-04-12T12:19:30;22.10;;;14.10;;
70970;SDS011;58632;51.718;19.446;2023-04-12T12:24:43;15.30;;;10.50;;
70970;SDS011;58632;51.718;19.446;2023-04-12T12:27:11;16.30;;;11.60;;
70970;SDS011;58632;51.718;19.446;2023-04-12T12:29:37;14.60;;;11.90;;
70970;SDS011;58632;51.718;19.446;2023-04-12T12:32:13;12.00;;;10.30;;
70970;SDS011;58632;51.718;19.446;2023-04-12T12:34:52;12.70;;;9.30;;
70970;SDS011;58632;51.718;19.446;2023-04-12T12:37:19;13.10;;;9.90;;
70970;SDS011;58632;51.718;19.446;2023-04-12T12:42:34;12.60;;;9.20;;
70970;SDS011;58632;51.718;19.446;2023-04-12T12:45:00;13.60;;;9.00;;
70970;SDS011;58632;51.718;19.446;2023-04-12T12:47:29;14.10;;;9.60;;
70970;SDS011;58632;51.718;19.446;2023-04-12T12:49:56;10.20;;;7.80;;
70970;SDS011;58632;51.718;19.446;2023-04-12T12:52:22;11.90;;;8.10;;
70970;SDS011;58632;51.718;19.446;2023-04-12T12:54:48;9.10;;;6.90;;
70970;SDS011;58632;51.718;19.446;2023-04-12T12:57:14;11.90;;;7.50;;
70970;SDS011;58632;51.718;19.446;2023-04-12T12:59:40;11.40;;;7.30;;
70970;SDS011;58632;51.718;19.446;2023-04-12T13:02:06;11.10;;;7.90;;
70970;SDS011;58632;51.718;19.446;2023-04-12T13:04:32;12.30;;;7.90;;
70970;SDS011;58632;51.718;19.446;2023-04-12T13:06:59;12.10;;;7.80;;
70970;SDS011;58632;51.718;19.446;2023-04-12T13:09:24;11.20;;;7.60;;
70970;SDS011;58632;51.718;19.446;2023-04-12T13:11:50;11.70;;;8.00;;
70970;SDS011;58632;51.718;19.446;2023-04-12T13:14:16;10.90;;;8.20;;
70970;SDS011;58632;51.718;19.446;2023-04-12T13:16:42;13.90;;;8.30;;
70970;SDS011;58632;51.718;19.446;2023-04-12T13:19:10;9.70;;;7.90;;
70970;SDS011;58632;51.718;19.446;2023-04-12T13:21:36;13.50;;;9.40;;
70970;SDS011;58632;51.718;19.446;2023-04-12T13:24:02;10.20;;;7.60;;
70970;SDS011;58632;51.718;19.446;2023-04-12T13:26:28;10.20;;;7.70;;
70970;SDS011;58632;51.718;19.446;2023-04-12T13:28:54;10.10;;;7.80;;
70970;SDS011;58632;51.718;19.446;2023-04-12T13:31:20;9.60;;;7.50;;
70970;SDS011;58632;51.718;19.446;2023-04-12T13:33:45;17.10;;;8.90;;
70970;SDS011;58632;51.718;19.446;2023-04-12T13:36:11;10.80;;;7.60;;
70970;SDS011;58632;51.718;19.446;2023-04-12T13:38:37;10.70;;;8.50;;
70970;SDS011;58632;51.718;19.446;2023-04-12T13:41:04;10.00;;;7.30;;
70970;SDS011;58632;51.718;19.446;2023-04-12T13:43:30;13.20;;;9.60;;
70970;SDS011;58632;51.718;19.446;2023-04-12T13:45:56;10.50;;;7.30;;
70970;SDS011;58632;51.718;19.446;2023-04-12T13:48:23;12.00;;;8.60;;
70970;SDS011;58632;51.718;19.446;2023-04-12T13:50:50;11.90;;;7.90;;
70970;SDS011;58632;51.718;19.446;2023-04-12T13:53:16;12.50;;;8.30;;
70970;SDS011;58632;51.718;19.446;2023-04-12T13:55:42;10.40;;;7.90;;
70970;SDS011;58632;51.718;19.446;2023-04-12T13:58:10;12.50;;;8.40;;
70970;SDS011;58632;51.718;19.446;2023-04-12T14:00:36;11.60;;;8.50;;
70970;SDS011;58632;51.718;19.446;2023-04-12T14:03:02;13.80;;;10.00;;
70970;SDS011;58632;51.718;19.446;2023-04-12T14:05:28;16.00;;;13.00;;
70970;SDS011;58632;51.718;19.446;2023-04-12T14:07:54;13.20;;;10.10;;
70970;SDS011;58632;51.718;19.446;2023-04-12T14:10:20;10.20;;;8.30;;
70970;SDS011;58632;51.718;19.446;2023-04-12T14:12:46;12.60;;;8.00;;
70970;SDS011;58632;51.718;19.446;2023-04-12T14:15:12;10.80;;;7.40;;
70970;SDS011;58632;51.718;19.446;2023-04-12T14:17:38;8.90;;;7.10;;
70970;SDS011;58632;51.718;19.446;2023-04-12T14:20:04;11.00;;;7.60;;
70970;SDS011;58632;51.718;19.446;2023-04-12T14:22:34;11.70;;;7.50;;
70970;SDS011;58632;51.718;19.446;2023-04-12T14:25:01;11.40;;;8.30;;
70970;SDS011;58632;51.718;19.446;2023-04-12T14:27:27;10.90;;;8.30;;
70970;SDS011;58632;51.718;19.446;2023-04-12T14:29:53;11.70;;;8.30;;
70970;SDS011;58632;51.718;19.446;2023-04-12T14:32:20;8.80;;;7.00;;
70970;SDS011;58632;51.718;19.446;2023-04-12T14:34:46;12.00;;;8.20;;
70970;SDS011;58632;51.718;19.446;2023-04-12T14:37:13;11.50;;;8.50;;
70970;SDS011;58632;51.718;19.446;2023-04-12T14:39:39;11.10;;;8.10;;
70970;SDS011;58632;51.718;19.446;2023-04-12T14:42:06;13.30;;;8.80;;
70970;SDS011;58632;51.718;19.446;2023-04-12T14:44:31;12.00;;;8.70;;
70970;SDS011;58632;51.718;19.446;2023-04-12T14:46:57;24.70;;;15.90;;
70970;SDS011;58632;51.718;19.446;2023-04-12T14:49:24;11.80;;;8.60;;
70970;SDS011;58632;51.718;19.446;2023-04-12T14:51:49;13.90;;;10.10;;
70970;SDS011;58632;51.718;19.446;2023-04-12T14:54:15;10.70;;;8.40;;
70970;SDS011;58632;51.718;19.446;2023-04-12T14:56:41;10.90;;;7.60;;
70970;SDS011;58632;51.718;19.446;2023-04-12T14:59:07;9.90;;;7.70;;
70970;SDS011;58632;51.718;19.446;2023-04-12T15:01:33;11.50;;;8.30;;
70970;SDS011;58632;51.718;19.446;2023-04-12T15:04:01;14.70;;;8.60;;
70970;SDS011;58632;51.718;19.446;2023-04-12T15:06:30;12.00;;;7.70;;
70970;SDS011;58632;51.718;19.446;2023-04-12T15:08:59;13.90;;;8.90;;
70970;SDS011;58632;51.718;19.446;2023-04-12T15:13:51;10.70;;;7.70;;